BLUO2: Blue River, Blue, OK

Data processed at Wed May 22 2019 23:50


All information presented herein is the property of the government of the United States of America and may be revised or deleted at any time without prior notice.
Dissemination of this information without the expressed written consent of the Public Affairs Office, Tulsa District U.S. Army Corps of Engineers is strictly prohibited.
These data are gathered electronically and, as presented, have not undergone any form of quality control. These data are not guaranteed to be valid or correct.
Go to home page.
Go to station list.
Go to home page.

Downstream station:


Previous Day
Next Day
Current Day
    
SHEF ID:       BLUO2     Blue River near Blue, OK
STATION TYPE:  
Regulating: Stage =    21.00, Flow =     4372

               PRECIP     STAGE  RIV-FLOW  BAT-LOAD
                   in        ft       cfs      volt
              Ccp-Rev   Ccp-Rev   Ccp-Rev   Ccp-Rev
(US/Central)
05/22 00:00      0.00     12.06      1274     12.65
05/22 01:00      0.00     12.49      1391     12.65
05/22 02:00      0.00     12.89      1503     12.65
05/22 03:00      0.00     13.27      1612     12.65
05/22 04:00      0.00     13.59      1706     12.65
05/22 05:00      0.00     13.86      1786     12.57
05/22 06:00      0.00     14.06      1847     12.57
05/22 07:00      0.00     14.22      1896     12.57
05/22 08:00      0.00     14.30      1921     12.65
05/22 09:00      0.00     14.34      1933     12.73
05/22 10:00      0.00     14.32      1927     13.13
05/22 11:00      0.00     14.29      1918     13.21
05/22 12:00      0.00     14.22      1896     13.21
05/22 13:00      0.00     14.11      1862     13.21
05/22 14:00      0.00     14.01      1832     13.21
05/22 15:00      0.00     13.89      1795     13.13
05/22 16:00      0.00     13.80      1768     13.05
05/22 17:00      0.00     13.72      1744     13.05
05/22 18:00      0.00     13.62      1715     13.05
05/22 19:00      0.00     13.54      1691     13.05
05/22 20:00      0.00     13.46      1667     12.89
05/22 21:00      0.00     13.34      1632     12.81
05/22 22:00      0.00     13.20      1591     12.73
05/22 23:00      0.00     13.04      1545     12.73